Time;durP1;ratioP1;P1;durP2;ratioP2;P2;SDS_P1;SDS_P2;PMS_P1;PMS_P2;Temp;Humidity;BMP_temperature;BMP_pressure;BME280_temperature;BME280_humidity;BME280_pressure;Samples;Min_cycle;Max_cycle;Signal;HPM_P1;HPM_P2
2023/02/14 00:00:42;;;;;;;27.10;23.50;;;;;;;4.00;100.00;102857.88;2072182;28;20703;-65
2023/02/14 00:01:43;;;;;;;29.30;23.33;;;;;;;5.34;100.00;103070.47;2071431;28;20279;-66
2023/02/14 00:02:43;;;;;;;27.70;22.83;;;;;;;5.33;100.00;103068.09;2072081;28;20193;-65
2023/02/14 00:03:44;;;;;;;29.77;23.80;;;;;;;5.38;100.00;103067.88;2068018;28;20280;-66
2023/02/14 00:04:46;;;;;;;27.50;22.70;;;;;;;5.34;100.00;103070.47;2067146;28;20223;-65
2023/02/14 00:05:48;;;;;;;26.55;22.75;;;;;;;5.37;100.00;103067.06;2072135;28;20185;-65
2023/02/14 00:06:48;;;;;;;26.77;22.95;;;;;;;5.42;100.00;103061.34;2070550;28;20719;-65
2023/02/14 00:07:49;;;;;;;26.77;22.30;;;;;;;5.41;100.00;103048.75;2064060;28;20520;-65
2023/02/14 00:08:52;;;;;;;25.80;21.93;;;;;;;5.47;100.00;103057.56;2071821;28;20213;-66
2023/02/14 00:09:53;;;;;;;24.58;21.75;;;;;;;5.51;100.00;103062.06;2071711;28;20239;-66
2023/02/14 00:10:53;;;;;;;24.90;21.37;;;;;;;4.87;100.00;102972.94;2071910;28;20197;-66
2023/02/14 00:11:54;;;;;;;25.30;21.67;;;;;;;5.47;100.00;103066.63;2069994;28;20215;-65
2023/02/14 00:12:54;;;;;;;26.43;22.20;;;;;;;5.44;100.00;103072.03;2064334;28;20189;-65
2023/02/14 00:15:23;;;;;;;27.35;21.98;;;;;;;5.35;100.00;103052.03;2071999;28;20575;-65
2023/02/14 00:16:24;;;;;;;26.63;22.33;;;;;;;5.33;100.00;103051.59;2071847;28;20192;-65
2023/02/14 00:17:24;;;;;;;26.33;22.33;;;;;;;5.39;100.00;103055.72;2071999;28;20177;-65
2023/02/14 00:19:01;;;;;;;25.47;21.53;;;;;;;5.08;100.00;103005.91;2064461;28;20204;-65
2023/02/14 00:19:45;;;;;;;25.27;21.42;;;;;;;5.51;100.00;103059.31;2063791;28;20197;-65
2023/02/14 00:20:46;;;;;;;29.47;22.37;;;;;;;5.52;100.00;103063.69;2072402;28;20188;-65
2023/02/14 00:21:47;;;;;;;28.37;22.27;;;;;;;5.54;100.00;103066.09;2071736;28;20620;-64
2023/02/14 00:22:48;;;;;;;25.10;20.88;;;;;;;5.50;100.00;103059.66;2071993;28;20292;-65
2023/02/14 00:23:48;;;;;;;25.37;21.60;;;;;;;5.54;100.00;103077.88;2072177;28;20198;-65
2023/02/14 00:24:48;;;;;;;26.50;21.63;;;;;;;5.12;100.00;103013.13;2072269;28;20483;-65
2023/02/14 00:25:49;;;;;;;25.13;21.10;;;;;;;5.41;100.00;103070.75;2071941;28;20607;-65
2023/02/14 00:26:50;;;;;;;26.90;21.87;;;;;;;5.41;100.00;103073.50;2069711;28;20188;-65
2023/02/14 00:27:53;;;;;;;24.77;20.77;;;;;;;5.39;100.00;103074.97;2064004;28;20192;-65
2023/02/14 00:28:53;;;;;;;25.42;21.48;;;;;;;5.38;100.00;103074.16;2071464;28;20257;-65
2023/02/14 00:29:55;;;;;;;24.47;20.90;;;;;;;5.42;100.00;103066.03;2072433;28;20646;-64
2023/02/14 00:30:56;;;;;;;25.33;21.75;;;;;;;5.41;100.00;103070.75;2071636;28;20206;-65
2023/02/14 00:31:57;;;;;;;26.35;21.85;;;;;;;4.59;100.00;102943.63;2071532;28;20642;-65
2023/02/14 00:32:57;;;;;;;25.57;21.57;;;;;;;5.41;100.00;103073.50;2071848;28;20689;-65
2023/02/14 00:33:58;;;;;;;26.57;21.80;;;;;;;4.53;100.00;102948.53;2068319;28;20194;-65
2023/02/14 00:34:59;;;;;;;26.63;21.60;;;;;;;5.48;100.00;103076.50;2066580;28;20230;-65
2023/02/14 00:36:05;;;;;;;24.80;20.77;;;;;;;5.45;100.00;103076.38;2072177;28;20211;-65
2023/02/14 00:37:06;;;;;;;25.00;20.60;;;;;;;5.48;100.00;103076.50;2071073;28;20558;-65
2023/02/14 00:38:06;;;;;;;25.17;21.03;;;;;;;5.43;100.00;103068.44;2071432;28;20176;-65
2023/02/14 00:39:09;;;;;;;24.53;21.53;;;;;;;5.47;100.00;103080.41;2071267;28;20177;-65
2023/02/14 00:40:10;;;;;;;24.90;20.73;;;;;;;5.46;100.00;103075.22;2071280;28;20755;-65
2023/02/14 00:41:18;;;;;;;24.97;21.20;;;;;;;5.47;100.00;103072.16;2071033;28;20627;-65
2023/02/14 00:42:18;;;;;;;28.23;22.17;;;;;;;5.47;100.00;103080.41;2070123;28;20671;-65
2023/02/14 00:43:18;;;;;;;26.77;21.53;;;;;;;5.51;100.00;103066.75;2066969;28;20205;-65
2023/02/14 00:44:19;;;;;;;25.30;21.10;;;;;;;5.47;100.00;103066.63;2068000;28;20657;-65
2023/02/14 00:45:19;;;;;;;24.13;20.93;;;;;;;5.45;100.00;103077.19;2069140;28;20255;-66
2023/02/14 00:46:21;;;;;;;24.37;20.57;;;;;;;5.30;100.00;103049.50;2065557;28;20248;-65
2023/02/14 00:47:22;;;;;;;25.13;21.42;;;;;;;5.45;100.00;103082.69;2071200;28;20598;-65
2023/02/14 00:48:22;;;;;;;24.80;21.17;;;;;;;5.44;100.00;103077.53;2072649;28;20218;-65
2023/02/14 00:49:23;;;;;;;24.80;21.17;;;;;;;5.44;100.00;103072.81;2070868;28;20218;-65
2023/02/14 00:50:23;;;;;;;26.17;21.97;;;;;;;5.45;100.00;103063.44;2071479;28;20196;-65
2023/02/14 00:51:24;;;;;;;26.87;21.93;;;;;;;4.84;100.00;102981.88;2070781;28;20717;-66
2023/02/14 00:52:24;;;;;;;27.30;20.93;;;;;;;5.34;100.00;103042.97;2070930;28;20580;-66
2023/02/14 00:53:24;;;;;;;26.93;21.20;;;;;;;5.53;100.00;103078.25;2071884;28;20742;-65
2023/02/14 00:54:26;;;;;;;25.93;21.43;;;;;;;5.57;100.00;103093.72;2072131;28;20177;-65
2023/02/14 00:55:27;;;;;;;25.30;21.67;;;;;;;5.57;100.00;103068.16;2071587;28;20239;-65
2023/02/14 00:56:28;;;;;;;26.67;21.13;;;;;;;5.62;100.00;103067.94;2071645;28;20227;-65
2023/02/14 00:57:28;;;;;;;24.40;21.13;;;;;;;5.05;100.00;102970.84;2063940;28;20678;-65
2023/02/14 00:58:29;;;;;;;22.43;20.00;;;;;;;5.72;100.00;103056.50;2063814;28;20194;-65
2023/02/14 00:59:30;;;;;;;25.65;21.60;;;;;;;4.51;100.00;102862.94;2069272;28;20266;-65
2023/02/14 01:00:30;;;;;;;25.63;21.20;;;;;;;5.72;100.00;103048.25;2072006;28;20199;-65
2023/02/14 01:01:31;;;;;;;27.77;22.37;;;;;;;5.68;100.00;103041.81;2071533;28;20208;-65
2023/02/14 01:02:31;;;;;;;24.90;21.70;;;;;;;5.68;100.00;103039.06;2072006;28;20208;-65
2023/02/14 01:03:32;;;;;;;26.17;21.47;;;;;;;5.57;100.00;103033.19;2072006;28;20187;-65
2023/02/14 01:04:32;;;;;;;25.13;20.77;;;;;;;5.58;100.00;103034.81;2071776;28;20183;-65
2023/02/14 01:05:33;;;;;;;26.00;22.37;;;;;;;4.84;100.00;102906.88;2072474;28;20794;-65
2023/02/14 01:06:33;;;;;;;26.37;22.17;;;;;;;5.73;100.00;103044.34;2071518;28;20678;-65
2023/02/14 01:07:34;;;;;;;26.40;22.13;;;;;;;5.67;100.00;103035.53;2071978;28;20200;-65
2023/02/14 01:08:34;;;;;;;24.87;21.37;;;;;;;5.77;100.00;103043.34;2071778;28;20245;-66
2023/02/14 01:09:35;;;;;;;24.27;21.10;;;;;;;5.79;100.00;103038.28;2071378;28;20246;-65
2023/02/14 01:10:36;;;;;;;27.23;21.37;;;;;;;5.64;100.00;103019.69;2071751;28;20200;-65
2023/02/14 01:11:38;;;;;;;25.25;20.58;;;;;;;5.80;100.00;103048.16;2071010;28;20176;-66
2023/02/14 01:12:39;;;;;;;26.50;21.77;;;;;;;5.76;100.00;103038.16;2071774;28;20650;-66
2023/02/14 01:13:40;;;;;;;25.60;21.00;;;;;;;5.73;100.00;103031.41;2072448;28;20617;-65
2023/02/14 01:14:40;;;;;;;25.85;21.77;;;;;;;5.74;100.00;103033.00;2071958;28;20201;-65
2023/02/14 01:15:44;;;;;;;25.47;21.20;;;;;;;5.65;100.00;103021.28;2072016;28;20259;-65
2023/02/14 01:16:45;;;;;;;24.83;20.83;;;;;;;5.79;100.00;103034.75;2071173;28;20231;-65
2023/02/14 01:17:45;;;;;;;26.13;21.37;;;;;;;5.77;100.00;103031.50;2067110;28;20194;-65
2023/02/14 01:18:46;;;;;;;25.27;21.07;;;;;;;5.75;100.00;103020.84;2067712;28;20199;-65
2023/02/14 01:19:46;;;;;;;25.13;22.17;;;;;;;5.70;100.00;103014.78;2071554;28;20686;-65
2023/02/14 01:20:47;;;;;;;28.07;22.27;;;;;;;5.68;100.00;103011.53;2072093;28;20594;-65
2023/02/14 01:21:47;;;;;;;24.87;21.53;;;;;;;5.25;100.00;102972.72;2072053;28;20698;-65
2023/02/14 01:22:48;;;;;;;25.40;21.70;;;;;;;4.39;100.00;102831.88;2065621;28;20200;-65
2023/02/14 01:23:50;;;;;;;27.63;22.37;;;;;;;5.47;100.00;103010.81;2072967;28;20188;-65
2023/02/14 01:24:51;;;;;;;29.02;22.77;;;;;;;5.39;100.00;103015.28;2067038;28;20567;-65
2023/02/14 01:25:51;;;;;;;28.00;22.43;;;;;;;5.23;100.00;102986.03;2070951;28;20274;-65
2023/02/14 01:26:51;;;;;;;26.50;21.90;;;;;;;5.34;100.00;103014.69;2072928;28;20204;-65
2023/02/14 01:27:52;;;;;;;26.33;21.83;;;;;;;5.33;100.00;103024.88;2073281;28;20231;-65
2023/02/14 01:28:53;;;;;;;27.90;21.83;;;;;;;4.56;100.00;102898.41;2072948;28;20184;-65
2023/02/14 01:29:53;;;;;;;29.93;22.17;;;;;;;5.27;100.00;103014.44;2073210;28;20639;-65
2023/02/14 01:30:53;;;;;;;28.50;21.87;;;;;;;5.13;100.00;103017.47;2073000;28;20286;-65
2023/02/14 01:31:54;;;;;;;25.80;21.57;;;;;;;5.13;100.00;103014.72;2072096;28;20246;-64
2023/02/14 01:32:54;;;;;;;28.87;22.77;;;;;;;4.96;100.00;102990.16;2072036;28;20195;-65
2023/02/14 01:33:55;;;;;;;27.70;21.47;;;;;;;4.79;100.00;103004.06;2073308;28;20273;-65
2023/02/14 01:34:56;;;;;;;25.90;21.17;;;;;;;5.06;100.00;103017.22;2068513;28;20315;-65
2023/02/14 01:35:57;;;;;;;26.37;22.07;;;;;;;5.05;100.00;103014.81;2065269;28;20366;-65
2023/02/14 01:36:57;;;;;;;27.57;22.00;;;;;;;4.97;100.00;103007.47;2066799;28;20189;-65
2023/02/14 01:37:58;;;;;;;28.83;22.07;;;;;;;4.98;100.00;103004.34;2073076;28;20184;-65
2023/02/14 01:39:02;;;;;;;28.63;21.97;;;;;;;5.04;100.00;103008.53;2072839;28;20657;-65
2023/02/14 01:40:05;;;;;;;28.75;21.38;;;;;;;5.04;100.00;103013.22;2073855;28;20624;-64
2023/02/14 01:41:06;;;;;;;27.73;21.10;;;;;;;3.81;100.00;102818.34;2073503;28;20191;-65
2023/02/14 01:42:06;;;;;;;27.37;21.17;;;;;;;5.02;100.00;103012.75;2066121;28;20265;-65
2023/02/14 01:43:15;;;;;;;29.20;21.77;;;;;;;4.97;100.00;103018.47;2070744;28;20203;-65
2023/02/14 01:44:18;;;;;;;26.23;20.60;;;;;;;4.96;100.00;103005.84;2073432;28;20202;-65
2023/02/14 01:45:21;;;;;;;27.25;21.08;;;;;;;4.99;100.00;103010.66;2073250;28;20195;-65
2023/02/14 01:46:23;;;;;;;26.75;19.77;;;;;;;4.89;100.00;103008.34;2073116;28;20638;-65
2023/02/14 01:47:27;;;;;;;24.92;20.75;;;;;;;4.76;100.00;102974.50;2072503;28;20246;-66
2023/02/14 01:48:28;;;;;;;27.85;21.73;;;;;;;4.94;100.00;102999.88;2073631;28;20215;-65
2023/02/14 01:49:37;;;;;;;26.93;20.47;;;;;;;4.97;100.00;102990.97;2071900;28;20191;-65
2023/02/14 01:50:42;;;;;;;27.95;20.30;;;;;;;4.91;100.00;102976.63;2072091;28;20706;-65
2023/02/14 01:51:55;;;;;;;26.30;20.63;;;;;;;4.98;100.00;102990.63;2071974;28;20217;-66
2023/02/14 01:53:03;;;;;;;27.10;21.10;;;;;;;4.36;100.00;102898.44;2073018;28;20230;-65
2023/02/14 01:54:06;;;;;;;27.38;20.88;;;;;;;4.64;100.00;102948.91;2073130;28;20203;-65
2023/02/14 01:55:12;;;;;;;24.63;20.40;;;;;;;4.94;100.00;103000.69;2072728;28;20184;-65
2023/02/14 01:56:20;;;;;;;26.45;20.08;;;;;;;4.91;100.00;102997.78;2073095;28;20679;-65
2023/02/14 01:57:25;;;;;;;27.08;20.58;;;;;;;4.63;100.00;102948.13;2072243;28;20720;-65
2023/02/14 01:58:29;;;;;;;26.40;21.30;;;;;;;4.50;100.00;102940.16;2065582;28;20620;-65
2023/02/14 01:59:35;;;;;;;26.15;20.30;;;;;;;4.10;100.00;102862.19;2065082;28;20199;-65
2023/02/14 02:00:56;;;;;;;24.08;20.27;;;;;;;4.89;100.00;102987.16;2065467;28;20278;-65
2023/02/14 02:01:58;;;;;;;24.63;18.92;;;;;;;4.85;100.00;102979.91;2064746;28;20176;-65
2023/02/14 02:03:00;;;;;;;29.10;21.27;;;;;;;4.86;100.00;103001.56;2065326;28;20714;-65
2023/02/14 02:04:13;;;;;;;24.95;20.02;;;;;;;4.48;100.00;102962.47;2072682;28;20194;-65
2023/02/14 02:05:15;;;;;;;25.85;20.20;;;;;;;4.84;100.00;103003.03;2065281;28;20652;-65
2023/02/14 02:06:22;;;;;;;24.38;20.35;;;;;;;4.84;100.00;103008.53;2072481;28;20190;-65
2023/02/14 02:07:25;;;;;;;27.10;20.40;;;;;;;4.84;100.00;103012.09;2072511;28;20210;-65
2023/02/14 02:08:26;;;;;;;26.65;20.83;;;;;;;4.91;100.00;103020.59;2067290;28;20197;-66
2023/02/14 02:09:43;;;;;;;27.60;21.13;;;;;;;3.94;100.00;102864.69;2069416;28;20211;-65
2023/02/14 02:10:43;;;;;;;26.95;20.83;;;;;;;4.30;100.00;102936.28;2072812;28;20283;-65
2023/02/14 02:11:44;;;;;;;25.70;20.40;;;;;;;4.81;100.00;103012.75;2072494;28;20201;-65
2023/02/14 02:12:46;;;;;;;27.80;20.87;;;;;;;4.84;100.00;103012.09;2072866;28;20693;-65
2023/02/14 02:13:47;;;;;;;26.45;20.63;;;;;;;4.88;100.00;103006.72;2072927;28;20547;-65
2023/02/14 02:14:51;;;;;;;29.67;20.13;;;;;;;4.88;100.00;103009.47;2071990;28;20210;-66
2023/02/14 02:16:20;;;;;;;26.88;20.50;;;;;;;4.93;100.00;103001.03;2072134;28;20213;-65
2023/02/14 02:17:36;;;;;;;26.02;20.30;;;;;;;4.95;100.00;102998.75;2068490;28;20726;-65
2023/02/14 02:19:02;;;;;;;24.85;19.90;;;;;;;4.80;100.00;102963.63;2069781;28;20282;-65
2023/02/14 02:20:27;;;;;;;25.17;19.55;;;;;;;4.96;100.00;102976.41;2073368;28;20282;-66
2023/02/14 02:21:30;;;;;;;26.67;18.92;;;;;;;5.00;100.00;102974.63;2064838;28;20558;-66
2023/02/14 02:23:08;;;;;;;25.85;19.35;;;;;;;5.01;100.00;102967.16;2073257;28;20698;-65
2023/02/14 02:24:31;;;;;;;24.58;19.35;;;;;;;4.82;100.00;102942.16;2068547;28;20191;-66
2023/02/14 02:25:34;;;;;;;27.23;19.20;;;;;;;4.94;100.00;102975.97;2072841;28;20246;-66
2023/02/14 02:27:12;;;;;;;24.00;18.25;;;;;;;4.91;100.00;102975.81;2067972;28;20561;-65
2023/02/14 02:28:33;;;;;;;25.85;19.15;;;;;;;4.90;100.00;102979.72;2065462;28;20168;-65
2023/02/14 02:30:04;;;;;;;25.08;18.13;;;;;;;4.87;100.00;102978.44;2065180;28;20177;-65
2023/02/14 02:31:33;;;;;;;21.67;17.42;;;;;;;4.85;100.00;102972.50;2072860;28;20688;-65
2023/02/14 02:33:05;;;;;;;22.48;17.73;;;;;;;4.87;100.00;102970.19;2071923;28;20272;-65
2023/02/14 02:34:21;;;;;;;24.38;18.55;;;;;;;4.86;100.00;102967.78;2064932;28;20175;-66
2023/02/14 02:35:38;;;;;;;24.23;18.23;;;;;;;4.88;100.00;102966.31;2065729;28;20222;-65
2023/02/14 02:36:51;;;;;;;24.98;18.63;;;;;;;4.82;100.00;102966.88;2072527;28;20799;-65
2023/02/14 02:37:54;;;;;;;27.33;19.60;;;;;;;4.83;100.00;102963.75;2072052;28;20266;-65
2023/02/14 02:39:03;;;;;;;26.50;19.20;;;;;;;4.82;100.00;102964.91;2070301;28;20176;-65
2023/02/14 02:40:10;;;;;;;26.73;19.05;;;;;;;4.78;100.00;102972.22;2064915;28;20165;-64
2023/02/14 02:41:25;;;;;;;22.80;17.98;;;;;;;4.80;100.00;102969.94;2064674;28;20183;-65
2023/02/14 02:42:58;;;;;;;25.00;19.35;;;;;;;4.62;100.00;102940.22;2066908;28;20233;-65
2023/02/14 02:44:25;;;;;;;24.73;18.83;;;;;;;4.62;100.00;102957.50;2071732;28;20786;-65
2023/02/14 02:45:25;;;;;;;25.92;19.08;;;;;;;4.71;100.00;102969.22;2072013;28;20190;-65
2023/02/14 02:46:57;;;;;;;28.33;18.40;;;;;;;4.19;100.00;102904.06;2065201;28;20211;-65
2023/02/14 02:48:03;;;;;;;25.20;18.23;;;;;;;4.67;100.00;102971.00;2065883;28;20171;-65
2023/02/14 02:54:12;;;;;;;22.67;17.90;;;;;;;4.61;100.00;102947.66;2069581;28;20198;-65
2023/02/14 02:55:21;;;;;;;24.55;18.02;;;;;;;4.53;100.00;102936.75;2068218;28;20204;-65
2023/02/14 02:56:46;;;;;;;26.58;18.75;;;;;;;4.56;100.00;102944.31;2072984;28;20228;-65
2023/02/14 02:57:50;;;;;;;23.77;18.17;;;;;;;4.48;100.00;102942.44;2072554;28;20205;-65
2023/02/14 02:59:01;;;;;;;22.30;17.85;;;;;;;4.57;100.00;102946.72;2071886;28;20255;-66
2023/02/14 03:00:05;;;;;;;24.90;19.25;;;;;;;3.57;100.00;102797.03;2072190;28;20283;-65
2023/02/14 03:01:12;;;;;;;25.88;18.48;;;;;;;4.52;100.00;102935.13;2072515;28;20763;-65
2023/02/14 03:02:24;;;;;;;24.23;18.67;;;;;;;4.58;100.00;102942.03;2072483;28;20199;-65
2023/02/14 03:04:56;;;;;;;23.52;17.80;;;;;;;4.14;100.00;102852.13;2072213;28;20289;-65
2023/02/14 03:05:58;;;;;;;24.20;18.50;;;;;;;4.53;100.00;102914.78;2072652;28;20199;-65
2023/02/14 03:06:58;;;;;;;24.52;18.52;;;;;;;4.68;100.00;102939.69;2072422;28;20193;-65
2023/02/14 03:07:59;;;;;;;24.50;18.57;;;;;;;4.60;100.00;102915.84;2072697;28;20746;-65
2023/02/14 03:09:31;;;;;;;23.73;17.97;;;;;;;4.67;100.00;102931.78;2072003;28;20205;-65
2023/02/14 03:10:38;;;;;;;22.95;17.77;;;;;;;4.65;100.00;102929.38;2072337;28;20281;-65
2023/02/14 03:11:46;;;;;;;21.77;16.95;;;;;;;3.86;100.00;102799.72;2071910;28;20221;-65
2023/02/14 03:13:12;;;;;;;23.23;18.02;;;;;;;4.64;100.00;102929.69;2072810;28;20221;-65
2023/02/14 03:14:25;;;;;;;27.90;18.45;;;;;;;4.60;100.00;102931.50;2065110;28;20163;-65
2023/02/14 03:16:01;;;;;;;23.95;17.35;;;;;;;4.56;100.00;102931.38;2064077;28;20177;-65
2023/02/14 03:17:18;;;;;;;24.13;17.13;;;;;;;4.53;100.00;102926.56;2067740;28;20636;-65
2023/02/14 03:20:15;;;;;;;23.63;17.92;;;;;;;4.42;100.00;102935.53;2073102;28;20170;-65
2023/02/14 03:21:37;;;;;;;23.80;17.45;;;;;;;4.38;100.00;102935.41;2064928;28;20225;-65
2023/02/14 03:22:43;;;;;;;26.40;17.35;;;;;;;4.30;100.00;102927.22;2066773;28;20166;-65
2023/02/14 03:24:14;;;;;;;24.95;17.40;;;;;;;4.27;100.00;102930.66;2070434;28;20183;-65
2023/02/14 03:25:41;;;;;;;21.65;16.73;;;;;;;4.29;100.00;102923.69;2063918;28;20561;-65
2023/02/14 03:26:48;;;;;;;24.90;17.35;;;;;;;4.26;100.00;102923.56;2071505;28;20185;-65
2023/02/14 03:28:13;;;;;;;24.08;17.35;;;;;;;3.80;100.00;102869.63;2072841;28;20553;-65
2023/02/14 03:29:18;;;;;;;23.25;16.23;;;;;;;4.17;100.00;102923.63;2066331;28;20189;-65
2023/02/14 03:30:32;;;;;;;24.33;16.88;;;;;;;4.16;100.00;102924.75;2064992;28;20176;-65
2023/02/14 03:31:42;;;;;;;22.98;17.23;;;;;;;3.69;100.00;102864.88;2064191;28;20567;-65
2023/02/14 03:33:04;;;;;;;22.02;16.70;;;;;;;4.16;100.00;102924.75;2072325;28;20266;-65
2023/02/14 03:34:15;;;;;;;21.23;15.93;;;;;;;4.16;100.00;102924.75;2066263;28;20570;-65
2023/02/14 03:35:25;;;;;;;22.35;16.58;;;;;;;4.08;100.00;102917.38;2072283;28;20177;-65
2023/02/14 03:36:59;;;;;;;22.67;16.27;;;;;;;3.97;100.00;102915.34;2072253;28;20767;-65
2023/02/14 03:38:04;;;;;;;23.45;16.70;;;;;;;3.89;100.00;102914.28;2072332;28;20663;-65
2023/02/14 03:39:12;;;;;;;22.13;16.25;;;;;;;3.93;100.00;102907.00;2071622;28;20194;-66
2023/02/14 03:40:20;;;;;;;22.13;15.70;;;;;;;3.99;100.00;102911.16;2072573;28;20216;-66
2023/02/14 03:41:25;;;;;;;22.25;16.38;;;;;;;4.03;100.00;102916.75;2072271;28;20197;-66
2023/02/14 03:42:38;;;;;;;20.73;15.50;;;;;;;3.95;100.00;102887.47;2072453;28;20254;-66
2023/02/14 03:43:47;;;;;;;20.02;15.48;;;;;;;4.07;100.00;102901.25;2072249;28;20203;-66
2023/02/14 03:44:50;;;;;;;21.63;16.40;;;;;;;4.11;100.00;102902.19;2071589;28;20294;-66
2023/02/14 03:45:57;;;;;;;22.15;15.98;;;;;;;3.32;100.00;102772.53;2071967;28;20202;-66
2023/02/14 03:47:02;;;;;;;21.80;15.90;;;;;;;4.17;100.00;102909.91;2071683;28;20197;-66
2023/02/14 03:48:10;;;;;;;20.63;16.00;;;;;;;4.18;100.00;102908.75;2069104;28;20258;-66
2023/02/14 03:49:15;;;;;;;21.73;16.50;;;;;;;4.13;100.00;102903.47;2066945;28;20704;-66
2023/02/14 03:50:19;;;;;;;21.13;15.93;;;;;;;3.94;100.00;102896.81;2072345;28;20663;-66
2023/02/14 03:51:22;;;;;;;21.80;15.35;;;;;;;4.15;100.00;102908.63;2072177;28;20640;-66
2023/02/14 03:52:25;;;;;;;21.88;15.45;;;;;;;4.20;100.00;102905.69;2071802;28;20698;-66
2023/02/14 03:53:31;;;;;;;20.00;15.07;;;;;;;4.22;100.00;102912.44;2071392;28;20190;-66
2023/02/14 03:54:34;;;;;;;22.15;15.85;;;;;;;4.16;100.00;102904.75;2064227;28;20632;-66
2023/02/14 03:55:42;;;;;;;19.63;15.15;;;;;;;4.01;100.00;102895.13;2064582;28;20278;-66
2023/02/14 03:56:48;;;;;;;19.55;15.10;;;;;;;4.22;100.00;102919.88;2064015;28;20176;-66
2023/02/14 03:58:05;;;;;;;20.08;16.17;;;;;;;3.46;100.00;102792.28;2064627;28;20706;-66
2023/02/14 03:59:14;;;;;;;20.13;15.25;;;;;;;4.18;100.00;102921.66;2063596;28;20665;-66
2023/02/14 04:00:17;;;;;;;22.60;15.65;;;;;;;4.19;100.00;102915.03;2071869;28;20726;-65
2023/02/14 04:01:31;;;;;;;25.38;15.35;;;;;;;4.15;100.00;102901.19;2064433;28;20228;-66
2023/02/14 04:02:45;;;;;;;21.20;15.15;;;;;;;4.22;100.00;102914.38;2064006;28;20262;-66
2023/02/14 04:03:46;;;;;;;20.15;14.70;;;;;;;4.21;100.00;102908.06;2064438;28;20170;-66
2023/02/14 04:04:50;;;;;;;22.17;15.67;;;;;;;4.21;100.00;102904.53;2072553;28;20184;-66
2023/02/14 04:05:51;;;;;;;20.20;14.73;;;;;;;4.27;100.00;102898.50;2064565;28;20661;-65
2023/02/14 04:06:51;;;;;;;19.63;14.80;;;;;;;3.73;100.00;102802.72;2070724;28;20585;-66
2023/02/14 04:07:57;;;;;;;20.87;14.40;;;;;;;3.35;100.00;102739.78;2066283;28;20283;-65
2023/02/14 04:08:58;;;;;;;19.05;14.15;;;;;;;4.25;100.00;102872.56;2063824;28;20198;-65
2023/02/14 04:09:58;;;;;;;20.87;15.10;;;;;;;4.37;100.00;102887.13;2068385;28;20226;-65
2023/02/14 04:11:01;;;;;;;22.17;14.43;;;;;;;4.34;100.00;102887.81;2072205;28;20185;-65
2023/02/14 04:12:02;;;;;;;21.52;15.25;;;;;;;4.32;100.00;102898.28;2071528;28;20182;-65
2023/02/14 04:13:02;;;;;;;19.13;14.57;;;;;;;3.32;100.00;102756.91;2071944;28;20644;-66
2023/02/14 04:14:04;;;;;;;17.47;14.30;;;;;;;4.09;100.00;102897.03;2071463;28;20636;-65
2023/02/14 04:15:05;;;;;;;19.63;14.48;;;;;;;4.03;100.00;102886.59;2072456;28;20184;-65
2023/02/14 04:16:06;;;;;;;21.48;15.40;;;;;;;4.04;100.00;102902.72;2072290;28;20209;-66
2023/02/14 04:19:45;;;;;;;20.65;14.27;;;;;;;3.89;100.00;102895.06;2064002;28;20200;-66
2023/02/14 04:20:46;;;;;;;19.53;14.10;;;;;;;3.81;100.00;102886.91;2072219;28;20201;-65
2023/02/14 04:21:46;;;;;;;21.97;14.53;;;;;;;3.88;100.00;102893.47;2071721;28;20204;-65
2023/02/14 04:22:47;;;;;;;19.83;14.57;;;;;;;2.89;100.00;102726.22;2072015;28;20197;-66
2023/02/14 04:23:48;;;;;;;20.03;14.40;;;;;;;4.01;100.00;102892.41;2072155;28;20232;-66
2023/02/14 04:24:48;;;;;;;19.97;14.13;;;;;;;4.05;100.00;102896.09;2071906;28;20261;-66
2023/02/14 04:25:48;;;;;;;20.03;14.00;;;;;;;3.24;100.00;102770.66;2071832;28;20259;-65
2023/02/14 04:28:08;;;;;;;17.77;14.07;;;;;;;3.41;100.00;102779.56;2072111;28;20163;-66
2023/02/14 04:29:09;;;;;;;19.23;14.07;;;;;;;4.23;100.00;102899.50;2071199;28;20186;-65
2023/02/14 04:30:11;;;;;;;18.90;13.77;;;;;;;4.22;100.00;102901.47;2071732;28;20282;-65
2023/02/14 04:31:11;;;;;;;18.30;13.77;;;;;;;4.07;100.00;102880.13;2064292;28;20192;-65
2023/02/14 04:32:19;;;;;;;19.57;13.80;;;;;;;4.29;100.00;102903.66;2071136;28;20208;-65
2023/02/14 04:33:19;;;;;;;19.77;13.95;;;;;;;4.17;100.00;102879.72;2064799;28;20186;-65
2023/02/14 04:34:19;;;;;;;19.17;13.80;;;;;;;4.28;100.00;102900.13;2070046;28;20221;-66
2023/02/14 04:35:20;;;;;;;18.30;13.83;;;;;;;4.33;100.00;102902.66;2072026;28;20655;-66
2023/02/14 04:36:20;;;;;;;17.33;13.67;;;;;;;4.32;100.00;102894.78;2068408;28;20808;-65
2023/02/14 04:37:21;;;;;;;20.90;13.73;;;;;;;4.32;100.00;102903.78;2065317;28;20298;-65
2023/02/14 04:38:21;;;;;;;19.23;13.17;;;;;;;4.35;100.00;102894.06;2071523;28;20662;-65
2023/02/14 04:39:22;;;;;;;21.20;14.33;;;;;;;4.38;100.00;102891.50;2063732;28;20219;-66
2023/02/14 04:40:22;;;;;;;18.10;13.50;;;;;;;4.42;100.00;102902.59;2072581;28;20226;-65
2023/02/14 04:41:23;;;;;;;17.30;13.07;;;;;;;4.38;100.00;102890.66;2072025;28;20277;-65
2023/02/14 04:42:23;;;;;;;18.17;13.57;;;;;;;4.48;100.00;102895.75;2071875;28;20631;-65
2023/02/14 04:43:23;;;;;;;17.33;12.80;;;;;;;4.50;100.00;102888.78;2072027;28;20199;-66
2023/02/14 04:44:24;;;;;;;17.40;12.67;;;;;;;4.31;100.00;102852.78;2072051;28;20282;-65
2023/02/14 04:45:25;;;;;;;17.47;12.73;;;;;;;4.50;100.00;102869.56;2071655;28;20199;-65
2023/02/14 04:46:25;;;;;;;18.10;12.83;;;;;;;4.33;100.00;102861.50;2070155;28;20608;-66
2023/02/14 04:47:26;;;;;;;16.17;12.57;;;;;;;4.52;100.00;102881.00;2064015;28;20259;-65
2023/02/14 04:48:26;;;;;;;19.83;13.70;;;;;;;3.64;100.00;102741.69;2072622;28;20179;-65
2023/02/14 04:49:27;;;;;;;19.40;13.57;;;;;;;4.50;100.00;102875.06;2071672;28;20589;-65
2023/02/14 04:50:27;;;;;;;19.43;13.00;;;;;;;4.49;100.00;102872.66;2072168;28;20202;-65
2023/02/14 04:51:27;;;;;;;18.30;12.87;;;;;;;4.10;100.00;102812.78;2071695;28;20199;-65
2023/02/14 04:52:28;;;;;;;16.63;12.00;;;;;;;4.45;100.00;102871.69;2071876;28;20343;-65
2023/02/14 04:53:28;;;;;;;17.47;12.80;;;;;;;4.39;100.00;102864.81;2069096;28;20242;-65
2023/02/14 04:54:29;;;;;;;17.57;12.70;;;;;;;4.26;100.00;102860.44;2065832;28;20227;-65
2023/02/14 04:55:29;;;;;;;16.63;12.10;;;;;;;4.42;100.00;102880.63;2071419;28;20644;-65
2023/02/14 04:56:30;;;;;;;19.20;12.53;;;;;;;3.92;100.00;102803.06;2065639;28;20179;-65
2023/02/14 04:57:30;;;;;;;19.27;12.90;;;;;;;4.36;100.00;102887.47;2073058;28;20276;-65
2023/02/14 04:58:31;;;;;;;16.17;12.40;;;;;;;4.39;100.00;102884.03;2073828;28;20574;-65
2023/02/14 04:59:31;;;;;;;21.30;12.30;;;;;;;4.38;100.00;102882.44;2073016;28;20205;-65
2023/02/14 05:00:32;;;;;;;16.57;12.50;;;;;;;4.29;100.00;102865.22;2073623;28;20226;-65
2023/02/14 05:01:33;;;;;;;16.27;11.83;;;;;;;4.42;100.00;102881.41;2070322;28;20288;-73
2023/02/14 05:02:33;;;;;;;16.90;12.07;;;;;;;4.42;100.00;102892.41;2070122;28;20188;-62
2023/02/14 05:03:34;;;;;;;17.37;11.93;;;;;;;4.41;100.00;102888.06;2070684;28;20189;-63
2023/02/14 05:04:34;;;;;;;16.53;12.77;;;;;;;4.45;100.00;102882.69;2070703;28;20295;-63
2023/02/14 05:05:34;;;;;;;16.63;11.97;;;;;;;3.75;100.00;102767.56;2072627;28;20634;-63
2023/02/14 05:06:35;;;;;;;17.83;12.87;;;;;;;4.46;100.00;102879.59;2071164;28;20248;-65
2023/02/14 05:07:36;;;;;;;17.70;12.73;;;;;;;4.50;100.00;102882.47;2071288;28;20674;-64
2023/02/14 05:08:36;;;;;;;16.87;11.80;;;;;;;4.51;100.00;102893.13;2070462;28;20201;-66
2023/02/14 05:09:36;;;;;;;18.50;12.60;;;;;;;4.53;100.00;102877.16;2071663;28;20186;-69
2023/02/14 05:10:37;;;;;;;16.93;12.93;;;;;;;4.54;100.00;102875.19;2071352;28;20188;-71